createdAt,value
2018-05-08T00:00:04.080Z,65.45
2018-05-08T00:02:33.208Z,65.02
2018-05-08T00:05:02.610Z,64.56
2018-05-08T00:07:32.062Z,64.16
2018-05-08T00:10:01.913Z,64.07
2018-05-08T00:12:31.631Z,62.94
2018-05-08T00:15:00.845Z,63.82
2018-05-08T00:17:30.237Z,65.02
2018-05-08T00:19:59.841Z,63.88
2018-05-08T00:22:29.034Z,62.89
2018-05-08T00:24:58.249Z,61.19
2018-05-08T00:27:27.304Z,61.73
2018-05-08T00:29:56.516Z,60.36
2018-05-08T00:32:25.623Z,60.60
2018-05-08T00:34:54.987Z,59.51
2018-05-08T00:37:24.563Z,59.27
2018-05-08T00:39:53.765Z,59.91
2018-05-08T00:42:23.008Z,58.81
2018-05-08T00:44:52.238Z,59.20
2018-05-08T00:47:21.377Z,59.02
2018-05-08T00:49:50.455Z,59.19
2018-05-08T00:52:19.671Z,60.17
2018-05-08T00:55:07.783Z,59.55
2018-05-08T00:57:37.000Z,60.30
2018-05-08T01:00:06.494Z,59.79
2018-05-08T01:02:35.760Z,59.93
2018-05-08T01:05:05.186Z,59.61
2018-05-08T01:07:34.357Z,60.42
2018-05-08T01:10:03.591Z,61.32
2018-05-08T01:12:33.603Z,61.92
2018-05-08T01:15:02.869Z,63.14
2018-05-08T01:17:32.393Z,64.85
2018-05-08T01:20:01.705Z,64.97
2018-05-08T01:22:31.109Z,64.77
2018-05-08T01:25:00.188Z,64.31
2018-05-08T01:27:29.464Z,64.13
2018-05-08T01:29:59.076Z,64.16
2018-05-08T01:32:28.124Z,63.70
2018-05-08T01:34:57.324Z,64.26
2018-05-08T01:37:26.764Z,63.57
2018-05-08T01:39:55.880Z,63.95
2018-05-08T01:42:25.013Z,64.51
2018-05-08T01:44:54.290Z,63.88
2018-05-08T01:47:23.724Z,63.02
2018-05-08T01:49:52.856Z,63.11
2018-05-08T01:52:22.217Z,63.97
2018-05-08T01:54:51.342Z,64.45
2018-05-08T01:57:20.616Z,64.24
2018-05-08T01:59:49.844Z,64.29
2018-05-08T02:02:18.938Z,64.23
2018-05-08T02:04:47.896Z,64.15
2018-05-08T02:07:17.010Z,63.45
2018-05-08T02:09:46.605Z,63.06
2018-05-08T02:12:15.777Z,62.22
2018-05-08T02:14:44.928Z,63.50
2018-05-08T02:17:14.457Z,63.78
2018-05-08T02:19:43.793Z,64.78
2018-05-08T02:22:12.940Z,64.34
2018-05-08T02:24:42.293Z,64.27
2018-05-08T02:27:11.465Z,64.59
2018-05-08T02:29:40.609Z,65.16
2018-05-08T02:32:09.909Z,65.46
2018-05-08T02:34:39.422Z,65.89
2018-05-08T02:37:08.723Z,66.22
2018-05-08T02:39:37.940Z,66.50
2018-05-08T02:42:07.172Z,65.58
2018-05-08T02:44:36.588Z,66.25
2018-05-08T02:47:05.789Z,66.57
2018-05-08T02:49:34.841Z,66.40
2018-05-08T02:52:04.399Z,66.99
2018-05-08T02:54:33.544Z,67.34
2018-05-08T02:57:02.581Z,67.05
2018-05-08T02:59:31.660Z,67.49
2018-05-08T03:02:00.697Z,67.99
2018-05-08T03:04:30.744Z,68.13
2018-05-08T03:07:00.132Z,68.42
2018-05-08T03:09:29.510Z,68.43
2018-05-08T03:11:58.488Z,68.90
2018-05-08T03:14:27.548Z,68.50
2018-05-08T03:16:56.653Z,68.52
2018-05-08T03:19:25.905Z,68.32
2018-05-08T03:21:55.062Z,68.72
2018-05-08T03:24:24.290Z,67.99
2018-05-08T03:26:53.492Z,67.06
2018-05-08T03:29:22.581Z,67.05
2018-05-08T03:31:51.607Z,66.46
2018-05-08T03:34:20.667Z,66.61
2018-05-08T03:36:49.916Z,66.92
2018-05-08T03:39:18.943Z,64.64
2018-05-08T03:41:47.943Z,65.17
2018-05-08T03:44:17.252Z,65.33
2018-05-08T03:46:46.316Z,64.23
2018-05-08T03:49:16.072Z,64.69
2018-05-08T03:51:45.080Z,65.62
2018-05-08T03:54:14.499Z,66.12
2018-05-08T03:56:43.736Z,65.72
2018-05-08T03:59:13.037Z,65.02
2018-05-08T04:01:53.484Z,65.21
2018-05-08T04:07:33.718Z,65.25
2018-05-08T04:10:03.543Z,63.30
2018-05-08T04:12:32.733Z,63.82
2018-05-08T04:15:01.850Z,64.29
2018-05-08T04:17:31.080Z,63.59
2018-05-08T04:20:00.404Z,63.54
2018-05-08T04:22:29.671Z,63.14
2018-05-08T04:24:58.797Z,63.10
2018-05-08T04:27:28.044Z,62.86
2018-05-08T04:29:57.214Z,62.53
2018-05-08T04:32:26.368Z,62.90
2018-05-08T04:34:55.464Z,63.86
2018-05-08T04:37:24.867Z,64.00
2018-05-08T04:39:53.992Z,63.15
2018-05-08T04:42:23.243Z,63.54
2018-05-08T04:44:53.184Z,63.92
2018-05-08T04:47:22.453Z,64.47
2018-05-08T04:49:51.670Z,64.69
2018-05-08T04:52:20.951Z,64.64
2018-05-08T04:54:50.030Z,64.50
2018-05-08T04:57:19.000Z,63.47
2018-05-08T04:59:48.006Z,63.13
2018-05-08T05:02:17.337Z,63.72
2018-05-08T05:04:46.474Z,63.02
2018-05-08T05:07:15.912Z,63.57
2018-05-08T05:09:45.040Z,63.32
2018-05-08T05:12:14.197Z,64.02
2018-05-08T05:14:43.553Z,63.77
2018-05-08T05:17:12.990Z,65.26
2018-05-08T05:19:42.202Z,64.56
2018-05-08T05:22:11.214Z,62.90
2018-05-08T05:24:40.534Z,64.02
2018-05-08T05:27:09.830Z,64.29
2018-05-08T05:29:38.945Z,65.35
2018-05-08T05:32:08.164Z,65.91
2018-05-08T05:34:37.364Z,65.85
2018-05-08T05:37:06.425Z,65.20
2018-05-08T05:39:35.637Z,66.18
2018-05-08T05:42:04.732Z,65.29
2018-05-08T05:44:33.920Z,65.27
2018-05-08T05:47:03.189Z,64.43
2018-05-08T05:49:32.709Z,65.03
2018-05-08T05:52:01.752Z,65.13
2018-05-08T05:54:30.992Z,64.95
2018-05-08T05:57:00.234Z,63.19
2018-05-08T05:59:29.394Z,61.91
2018-05-08T06:01:58.358Z,61.73
2018-05-08T06:04:27.452Z,63.29
2018-05-08T06:06:56.480Z,63.19
2018-05-08T06:09:25.536Z,64.07
2018-05-08T06:11:54.624Z,63.30
2018-05-08T06:14:23.973Z,63.69
2018-05-08T06:16:53.166Z,63.92
2018-05-08T06:19:22.412Z,64.25
2018-05-08T06:21:51.752Z,63.80
2018-05-08T06:24:20.881Z,63.86
2018-05-08T06:26:50.292Z,64.58
2018-05-08T06:29:19.436Z,64.29
2018-05-08T06:31:48.604Z,63.69
2018-05-08T06:34:17.968Z,64.01
2018-05-08T06:36:47.364Z,64.01
2018-05-08T06:39:16.453Z,64.09
2018-05-08T06:41:45.507Z,63.34
2018-05-08T06:44:15.059Z,64.16
2018-05-08T06:46:44.252Z,62.79
2018-05-08T06:49:13.588Z,62.25
2018-05-08T06:51:42.720Z,62.41
2018-05-08T06:54:12.038Z,63.10
2018-05-08T06:56:41.087Z,62.99
2018-05-08T06:59:10.049Z,63.05
2018-05-08T07:01:39.340Z,62.50
2018-05-08T07:04:09.216Z,62.23
2018-05-08T07:06:38.593Z,61.62
2018-05-08T07:09:07.574Z,61.37
2018-05-08T07:11:36.705Z,61.28
2018-05-08T07:14:05.896Z,61.18
2018-05-08T07:16:34.868Z,60.87
2018-05-08T07:19:04.206Z,59.75
2018-05-08T07:21:33.770Z,60.34
2018-05-08T07:24:03.020Z,57.70
2018-05-08T07:26:32.304Z,59.03
2018-05-08T07:29:01.420Z,59.03
2018-05-08T07:31:30.469Z,57.38
2018-05-08T07:33:59.609Z,57.32
2018-05-08T07:36:29.082Z,57.83
2018-05-08T07:38:58.708Z,57.41
2018-05-08T07:41:27.884Z,57.09
2018-05-08T07:43:57.141Z,56.52
2018-05-08T07:46:26.377Z,56.38
2018-05-08T07:48:55.750Z,55.89
2018-05-08T07:51:25.095Z,55.81
2018-05-08T07:53:54.326Z,56.08
2018-05-08T07:56:24.092Z,56.73
2018-05-08T07:58:53.385Z,56.36
2018-05-08T08:01:22.472Z,55.65
2018-05-08T08:03:51.845Z,54.11
2018-05-08T08:06:21.108Z,54.16
2018-05-08T08:08:50.244Z,54.96
2018-05-08T08:11:19.564Z,54.33
2018-05-08T08:13:48.919Z,54.58
2018-05-08T08:16:18.437Z,54.83
2018-05-08T08:18:47.540Z,54.95
2018-05-08T08:21:16.916Z,54.60
2018-05-08T08:23:46.283Z,54.82
2018-05-08T08:26:15.550Z,53.90
2018-05-08T08:28:44.977Z,55.86
2018-05-08T08:31:14.153Z,55.06
2018-05-08T08:33:43.526Z,53.91
2018-05-08T08:36:12.845Z,55.21
2018-05-08T08:38:41.997Z,53.88
2018-05-08T08:41:11.214Z,53.01
2018-05-08T08:43:40.432Z,53.44
2018-05-08T08:46:09.720Z,53.52
2018-05-08T08:48:38.820Z,53.47
2018-05-08T08:51:07.798Z,54.50
2018-05-08T08:53:37.217Z,52.65
2018-05-08T08:56:07.392Z,53.76
2018-05-08T08:58:36.649Z,53.76
2018-05-08T09:01:05.768Z,53.18
2018-05-08T09:03:34.968Z,53.64
2018-05-08T09:06:04.438Z,53.80
2018-05-08T09:08:33.440Z,52.70
2018-05-08T09:11:02.493Z,52.75
2018-05-08T09:13:31.622Z,52.43
2018-05-08T09:16:00.696Z,50.76
2018-05-08T09:18:29.760Z,50.64
2018-05-08T09:20:59.009Z,50.96
2018-05-08T09:23:28.632Z,48.95
2018-05-08T09:25:57.784Z,49.95
2018-05-08T09:28:27.253Z,50.16
2018-05-08T09:30:56.648Z,52.17
2018-05-08T09:33:25.856Z,50.93
2018-05-08T09:35:54.968Z,51.28
2018-05-08T09:38:24.394Z,50.69
2018-05-08T09:40:53.742Z,49.57
2018-05-08T09:43:22.860Z,49.14
2018-05-08T09:45:51.859Z,49.19
2018-05-08T09:48:21.224Z,46.93
2018-05-08T09:50:50.390Z,48.22
2018-05-08T09:53:19.625Z,47.54
2018-05-08T09:55:48.760Z,45.96
2018-05-08T09:58:18.193Z,46.31
2018-05-08T10:00:47.507Z,45.42
2018-05-08T10:03:17.000Z,48.39
2018-05-08T10:05:46.229Z,50.18
2018-05-08T10:08:15.375Z,47.75
2018-05-08T10:10:45.107Z,47.54
2018-05-08T10:13:14.463Z,47.41
2018-05-08T10:15:43.679Z,46.55
2018-05-08T10:18:13.121Z,46.96
2018-05-08T10:20:42.563Z,47.04
2018-05-08T10:23:11.719Z,47.74
2018-05-08T10:25:40.848Z,46.95
2018-05-08T10:28:10.388Z,46.56
2018-05-08T10:30:39.554Z,47.88
2018-05-08T10:33:08.752Z,47.05
2018-05-08T10:35:37.892Z,46.75
2018-05-08T10:38:07.124Z,47.18
2018-05-08T10:40:36.595Z,46.21
2018-05-08T10:43:05.729Z,45.85
2018-05-08T10:45:35.149Z,45.26
2018-05-08T10:48:04.292Z,45.42
2018-05-08T10:50:33.558Z,46.27
2018-05-08T10:53:03.181Z,46.33
2018-05-08T10:55:32.264Z,46.05
2018-05-08T10:58:01.672Z,45.71
2018-05-08T11:00:31.038Z,46.67
2018-05-08T11:03:00.244Z,45.79
2018-05-08T11:05:29.296Z,46.22
2018-05-08T11:07:58.546Z,45.63
2018-05-08T11:10:28.516Z,46.07
2018-05-08T11:12:57.991Z,47.60
2018-05-08T11:15:27.280Z,46.04
2018-05-08T11:17:56.315Z,46.05
2018-05-08T11:20:25.484Z,46.76
2018-05-08T11:22:54.694Z,46.09
2018-05-08T11:25:23.977Z,44.67
2018-05-08T11:27:53.070Z,44.99
2018-05-08T11:30:22.334Z,46.47
2018-05-08T11:32:51.525Z,47.14
2018-05-08T11:35:20.877Z,47.00
2018-05-08T11:37:50.176Z,49.16
2018-05-08T11:40:19.386Z,47.87
2018-05-08T11:42:48.412Z,48.16
2018-05-08T11:45:17.721Z,46.82
2018-05-08T11:47:46.804Z,47.94
2018-05-08T11:50:15.984Z,47.30
2018-05-08T11:52:45.104Z,46.19
2018-05-08T11:55:14.357Z,45.88
2018-05-08T11:57:43.870Z,46.28
2018-05-08T12:00:13.264Z,45.38
2018-05-08T12:02:42.755Z,45.09
2018-05-08T12:05:11.883Z,44.47
2018-05-08T12:07:41.265Z,46.36
2018-05-08T12:10:10.455Z,46.89
2018-05-08T12:12:39.546Z,48.34
2018-05-08T12:15:08.988Z,48.40
2018-05-08T12:17:38.173Z,46.15
2018-05-08T12:20:07.404Z,46.61
2018-05-08T12:22:36.804Z,46.47
2018-05-08T12:25:05.824Z,47.06
2018-05-08T12:27:34.896Z,45.85
2018-05-08T12:30:04.169Z,46.96
2018-05-08T12:32:33.332Z,47.74
2018-05-08T12:35:02.708Z,46.78
2018-05-08T12:37:31.908Z,47.82
2018-05-08T12:40:01.220Z,45.51
2018-05-08T12:42:30.520Z,47.47
2018-05-08T12:44:59.848Z,47.18
2018-05-08T12:47:29.795Z,46.93
2018-05-08T12:49:59.207Z,46.42
2018-05-08T12:52:28.610Z,46.48
2018-05-08T12:54:57.986Z,45.65
2018-05-08T12:57:27.172Z,45.66
2018-05-08T12:59:56.672Z,46.95
2018-05-08T13:02:25.933Z,45.39
2018-05-08T13:04:55.516Z,46.33
2018-05-08T13:07:24.721Z,48.08
2018-05-08T13:09:53.832Z,48.16
2018-05-08T13:12:23.498Z,47.78
2018-05-08T13:14:52.638Z,47.10
2018-05-08T13:17:21.759Z,46.79
2018-05-08T13:19:50.941Z,46.75
2018-05-08T13:22:19.965Z,47.24
2018-05-08T13:24:49.145Z,46.45
2018-05-08T13:27:18.316Z,46.68
2018-05-08T13:29:47.534Z,46.88
2018-05-08T13:32:16.652Z,45.79
2018-05-08T13:34:45.840Z,47.00
2018-05-08T13:37:15.206Z,46.52
2018-05-08T13:39:44.592Z,46.61
2018-05-08T13:42:13.805Z,48.17
2018-05-08T13:44:42.890Z,47.36
2018-05-08T13:47:12.102Z,47.56
2018-05-08T13:49:41.331Z,47.88
2018-05-08T13:52:10.614Z,48.44
2018-05-08T13:54:39.880Z,47.98
2018-05-08T13:57:08.946Z,48.92
2018-05-08T13:59:38.341Z,47.37
2018-05-08T14:02:07.620Z,46.64
2018-05-08T14:04:36.744Z,47.20
2018-05-08T14:07:05.941Z,49.64
2018-05-08T14:09:35.329Z,51.31
2018-05-08T14:12:04.456Z,52.63
2018-05-08T14:14:33.681Z,56.45
2018-05-08T14:17:03.198Z,56.57
2018-05-08T14:19:32.354Z,58.86
2018-05-08T14:22:01.606Z,58.81
2018-05-08T14:24:30.764Z,58.70
2018-05-08T14:27:00.107Z,57.96
2018-05-08T14:29:29.519Z,58.78
2018-05-08T14:31:58.628Z,57.47
2018-05-08T14:34:27.803Z,59.23
2018-05-08T14:36:57.077Z,59.85
2018-05-08T14:39:26.333Z,60.92
2018-05-08T14:41:55.420Z,60.92
2018-05-08T14:44:24.590Z,61.28
2018-05-08T14:46:53.829Z,62.56
2018-05-08T14:49:22.909Z,63.13
2018-05-08T14:51:51.972Z,64.11
2018-05-08T14:54:21.087Z,65.51
2018-05-08T14:56:50.357Z,64.67
2018-05-08T14:59:19.636Z,65.43
2018-05-08T15:01:48.932Z,62.91
2018-05-08T15:04:18.679Z,64.61
2018-05-08T15:06:47.839Z,64.84
2018-05-08T15:09:17.316Z,65.14
2018-05-08T15:11:51.630Z,65.76
2018-05-08T15:14:20.724Z,67.33
2018-05-08T15:16:49.938Z,68.93
2018-05-08T15:19:19.049Z,71.96
2018-05-08T15:21:48.280Z,72.38
2018-05-08T15:24:17.620Z,73.80
2018-05-08T15:26:46.700Z,73.46
2018-05-08T15:29:16.905Z,72.69
2018-05-08T15:31:46.139Z,72.66
2018-05-08T15:34:15.388Z,71.31
2018-05-08T15:36:44.457Z,70.93
2018-05-08T15:39:13.698Z,71.44
2018-05-08T15:41:42.826Z,71.16
2018-05-08T15:44:12.025Z,71.76
2018-05-08T15:46:41.236Z,70.74
2018-05-08T15:49:10.436Z,68.73
2018-05-08T15:51:39.653Z,69.76
2018-05-08T15:54:08.709Z,70.30
2018-05-08T15:56:37.922Z,70.48
2018-05-08T15:59:07.122Z,70.33
2018-05-08T16:01:36.172Z,69.10
2018-05-08T16:04:05.136Z,69.51
2018-05-08T16:06:34.233Z,69.04
2018-05-08T16:09:03.460Z,67.77
2018-05-08T16:11:32.516Z,66.79
2018-05-08T16:14:01.544Z,67.43
2018-05-08T16:16:30.693Z,67.17
2018-05-08T16:18:59.813Z,67.53
2018-05-08T16:21:28.920Z,67.92
2018-05-08T16:23:58.044Z,68.64
2018-05-08T16:26:27.176Z,71.98
2018-05-08T16:28:56.381Z,72.65
2018-05-08T16:31:25.446Z,73.99
2018-05-08T16:33:54.689Z,74.13
2018-05-08T16:36:23.824Z,76.16
2018-05-08T16:38:53.016Z,78.85
2018-05-08T16:41:22.500Z,81.87
2018-05-08T16:43:51.624Z,82.33
2018-05-08T16:46:20.753Z,84.56
2018-05-08T16:48:49.845Z,85.52
2018-05-08T16:51:18.948Z,86.21
2018-05-08T16:53:48.013Z,86.76
2018-05-08T16:56:16.968Z,87.35
2018-05-08T16:58:46.108Z,87.30
2018-05-08T17:01:15.368Z,87.51
2018-05-08T17:03:44.468Z,87.88
2018-05-08T17:06:13.578Z,86.21
2018-05-08T17:08:42.838Z,88.97
2018-05-08T17:11:12.359Z,87.56
2018-05-08T17:13:41.526Z,88.10
2018-05-08T17:16:10.695Z,83.54
2018-05-08T17:18:39.681Z,84.78
2018-05-08T17:21:08.621Z,84.71
2018-05-08T17:23:37.560Z,85.73
2018-05-08T17:26:06.921Z,84.27
2018-05-08T17:28:36.208Z,81.74
2018-05-08T17:31:05.456Z,82.07
2018-05-08T17:33:35.017Z,80.90
2018-05-08T17:36:04.694Z,83.46
2018-05-08T17:38:34.344Z,86.77
2018-05-08T17:41:04.016Z,86.46
2018-05-08T17:43:34.045Z,90.40
2018-05-08T17:46:03.988Z,90.68
2018-05-08T17:48:33.677Z,91.59
2018-05-08T17:51:03.337Z,89.80
2018-05-08T17:53:32.876Z,91.48
2018-05-08T17:56:02.080Z,93.35
2018-05-08T17:58:31.184Z,91.53
2018-05-08T18:01:00.456Z,92.74
2018-05-08T18:03:29.677Z,92.26
2018-05-08T18:05:59.228Z,93.11
2018-05-08T18:08:29.581Z,92.17
2018-05-08T18:10:58.961Z,91.49
2018-05-08T18:13:28.347Z,92.14
2018-05-08T18:15:57.632Z,92.53
2018-05-08T18:18:26.936Z,93.94
2018-05-08T18:20:56.092Z,96.48
2018-05-08T18:23:25.224Z,96.41
2018-05-08T18:25:54.459Z,97.37
2018-05-08T18:28:23.645Z,95.92
2018-05-08T18:30:53.372Z,96.44
2018-05-08T18:33:22.442Z,97.19
2018-05-08T18:35:51.568Z,98.03
2018-05-08T18:38:21.064Z,98.25
2018-05-08T18:40:50.064Z,98.64
2018-05-08T18:43:19.293Z,98.19
2018-05-08T18:45:48.400Z,98.48
2018-05-08T18:48:17.468Z,98.24
2018-05-08T18:50:46.647Z,99.44
2018-05-08T18:53:15.664Z,100.00
2018-05-08T18:55:44.840Z,99.19
2018-05-08T18:58:13.920Z,99.10
2018-05-08T19:00:48.457Z,100.00
2018-05-08T19:03:18.856Z,100.00
2018-05-08T19:05:47.968Z,100.00
2018-05-08T19:08:17.225Z,100.00
2018-05-08T19:10:46.724Z,100.00
2018-05-08T19:13:17.488Z,100.00
2018-05-08T19:15:52.473Z,100.00
2018-05-08T19:21:19.025Z,100.00
2018-05-08T19:23:54.133Z,97.88
2018-05-08T19:26:23.394Z,95.35
2018-05-08T19:28:58.260Z,96.31
2018-05-08T19:31:27.609Z,98.33
2018-05-08T19:33:56.808Z,98.77
2018-05-08T19:36:31.453Z,99.80
2018-05-08T19:39:00.773Z,100.00
2018-05-08T19:41:29.852Z,100.00
2018-05-08T19:43:59.000Z,100.00
2018-05-08T19:46:28.200Z,100.00
2018-05-08T19:48:57.269Z,100.00
2018-05-08T19:51:26.592Z,100.00
2018-05-08T19:53:55.892Z,100.00
2018-05-08T19:56:25.126Z,100.00
2018-05-08T19:58:54.262Z,100.00
2018-05-08T20:01:23.413Z,100.00
2018-05-08T20:03:52.644Z,100.00
2018-05-08T20:06:21.833Z,100.00
2018-05-08T20:08:50.948Z,100.00
2018-05-08T20:11:19.874Z,100.00
2018-05-08T20:13:49.047Z,100.00
2018-05-08T20:16:18.269Z,100.00
2018-05-08T20:18:47.375Z,100.00
2018-05-08T20:21:16.473Z,100.00
2018-05-08T20:23:45.665Z,100.00
2018-05-08T20:26:14.798Z,100.00
2018-05-08T20:28:44.032Z,100.00
2018-05-08T20:31:13.196Z,100.00
2018-05-08T20:33:42.155Z,100.00
2018-05-08T20:36:11.169Z,100.00
2018-05-08T20:38:41.184Z,100.00
2018-05-08T20:41:10.268Z,100.00
2018-05-08T20:43:39.521Z,100.00
2018-05-08T20:46:08.696Z,100.00
2018-05-08T20:48:37.953Z,100.00
2018-05-08T20:51:07.004Z,100.00
2018-05-08T20:53:36.040Z,100.00
2018-05-08T20:56:05.509Z,100.00
2018-05-08T20:58:34.716Z,100.00
2018-05-08T21:01:03.814Z,100.00
2018-05-08T21:03:32.883Z,100.00
2018-05-08T21:06:02.116Z,100.00
2018-05-08T21:08:31.460Z,100.00
2018-05-08T21:11:00.670Z,100.00
2018-05-08T21:13:29.952Z,100.00
2018-05-08T21:15:59.676Z,100.00
2018-05-08T21:18:28.720Z,100.00
2018-05-08T21:20:57.889Z,100.00
2018-05-08T21:23:26.839Z,100.00
2018-05-08T21:25:55.857Z,100.00
2018-05-08T21:28:30.729Z,100.00
2018-05-08T21:31:05.232Z,100.00
2018-05-08T21:33:34.432Z,100.00
2018-05-08T21:36:03.847Z,100.00
2018-05-08T21:38:33.316Z,100.00
2018-05-08T21:41:02.859Z,100.00
2018-05-08T21:43:32.175Z,100.00
2018-05-08T21:46:01.231Z,100.00
2018-05-08T21:48:30.624Z,100.00
2018-05-08T21:50:59.879Z,100.00
2018-05-08T21:53:29.028Z,100.00
2018-05-08T21:55:58.217Z,100.00
2018-05-08T21:58:27.372Z,100.00
2018-05-08T22:00:56.858Z,100.00
2018-05-08T22:03:25.913Z,100.00
2018-05-08T22:05:55.244Z,100.00
2018-05-08T22:08:24.321Z,100.00
2018-05-08T22:10:53.463Z,100.00
2018-05-08T22:13:23.159Z,100.00
2018-05-08T22:15:52.171Z,100.00
2018-05-08T22:18:21.128Z,100.00
2018-05-08T22:20:50.140Z,100.00
2018-05-08T22:23:19.148Z,100.00
2018-05-08T22:25:48.292Z,100.00
2018-05-08T22:28:17.592Z,100.00
2018-05-08T22:30:46.707Z,100.00
2018-05-08T22:33:16.125Z,100.00
2018-05-08T22:35:45.256Z,100.00
2018-05-08T22:38:14.633Z,100.00
2018-05-08T22:40:44.008Z,100.00
2018-05-08T22:43:13.092Z,100.00
2018-05-08T22:45:42.642Z,100.00
2018-05-08T22:48:11.640Z,100.00
2018-05-08T22:50:40.663Z,100.00
2018-05-08T22:53:10.177Z,100.00
2018-05-08T22:55:39.617Z,100.00
2018-05-08T22:58:09.984Z,100.00
2018-05-08T23:00:39.573Z,100.00
2018-05-08T23:03:08.568Z,100.00
2018-05-08T23:05:37.777Z,100.00
2018-05-08T23:08:06.935Z,100.00
2018-05-08T23:10:36.072Z,100.00
2018-05-08T23:13:05.064Z,100.00
2018-05-08T23:15:34.176Z,100.00
2018-05-08T23:18:03.374Z,100.00
2018-05-08T23:20:32.734Z,100.00
2018-05-08T23:23:01.907Z,100.00
2018-05-08T23:25:31.322Z,100.00
2018-05-08T23:28:00.621Z,100.00
2018-05-08T23:30:29.837Z,100.00
2018-05-08T23:32:58.920Z,100.00
2018-05-08T23:35:28.121Z,100.00
2018-05-08T23:37:57.354Z,100.00
2018-05-08T23:40:26.617Z,100.00
2018-05-08T23:42:55.675Z,100.00
2018-05-08T23:45:24.762Z,100.00
2018-05-08T23:47:54.044Z,100.00
2018-05-08T23:50:23.354Z,100.00
2018-05-08T23:52:52.943Z,100.00
2018-05-08T23:55:22.408Z,100.00
2018-05-08T23:57:51.527Z,100.00
